Time;durP1;ratioP1;P1;durP2;ratioP2;P2;SDS_P1;SDS_P2;PMS_P1;PMS_P2;Temp;Humidity;BMP_temperature;BMP_pressure;BME280_temperature;BME280_humidity;BME280_pressure;Samples;Min_cycle;Max_cycle;Signal;HPM_P1;HPM_P2
2022/07/03 00:01:38;;;;;;;6.77;6.10;;;;;;;;;;4971002;28;20205;-85
2022/07/03 00:04:05;;;;;;;7.87;6.10;;;;;;;;;;4971216;28;20281;-85
2022/07/03 00:06:33;;;;;;;6.90;6.20;;;;;;;;;;4970902;28;20205;-84
2022/07/03 00:09:00;;;;;;;7.40;6.33;;;;;;;;;;4969814;28;20274;-85
2022/07/03 00:11:28;;;;;;;7.30;6.57;;;;;;;;;;4971345;28;20201;-85
2022/07/03 00:13:55;;;;;;;6.93;6.33;;;;;;;;;;4970832;28;20201;-85
2022/07/03 00:16:23;;;;;;;6.67;6.17;;;;;;;;;;4971036;28;20271;-85
2022/07/03 00:18:50;;;;;;;7.13;6.53;;;;;;;;;;4970895;28;20270;-85
2022/07/03 00:21:29;;;;;;;7.00;6.37;;;;;;;;;;4970990;28;20205;-85
2022/07/03 00:24:01;;;;;;;7.50;6.73;;;;;;;;;;4971078;28;20205;-86
2022/07/03 00:26:31;;;;;;;6.07;5.57;;;;;;;;;;4970805;28;20276;-86
2022/07/03 00:29:01;;;;;;;6.63;6.10;;;;;;;;;;4970688;28;20287;-85
2022/07/03 00:31:31;;;;;;;7.87;5.80;;;;;;;;;;4970406;28;20193;-86
2022/07/03 00:33:59;;;;;;;15.07;7.30;;;;;;;;;;4970688;28;20200;-85
2022/07/03 00:36:28;;;;;;;7.87;6.13;;;;;;;;;;4970628;28;20674;-85
2022/07/03 00:38:55;;;;;;;7.13;6.43;;;;;;;;;;4970352;28;20197;-85
2022/07/03 00:41:27;;;;;;;7.93;7.13;;;;;;;;;;4970384;28;20243;-85
2022/07/03 00:43:54;;;;;;;8.23;7.30;;;;;;;;;;4970392;28;20201;-85
2022/07/03 00:46:22;;;;;;;7.47;6.87;;;;;;;;;;4970690;28;20197;-85
2022/07/03 00:48:55;;;;;;;6.73;6.10;;;;;;;;;;4970542;28;20204;-85
2022/07/03 00:51:24;;;;;;;6.50;5.83;;;;;;;;;;4970864;28;20254;-85
2022/07/03 00:53:52;;;;;;;8.03;6.50;;;;;;;;;;4970161;28;20297;-85
2022/07/03 00:56:25;;;;;;;7.17;6.00;;;;;;;;;;4970200;28;20240;-86
2022/07/03 00:58:55;;;;;;;6.97;6.47;;;;;;;;;;4970578;28;20197;-86
2022/07/03 01:01:23;;;;;;;7.13;5.87;;;;;;;;;;4970301;28;20244;-85
2022/07/03 01:03:58;;;;;;;6.30;5.80;;;;;;;;;;4970094;28;20745;-86
2022/07/03 01:06:25;;;;;;;6.63;6.03;;;;;;;;;;4970247;28;20311;-85
2022/07/03 01:08:58;;;;;;;7.00;6.40;;;;;;;;;;4970284;28;20205;-85
2022/07/03 01:11:29;;;;;;;7.70;6.60;;;;;;;;;;4970580;28;20696;-85
2022/07/03 01:14:06;;;;;;;7.77;7.00;;;;;;;;;;4970310;28;20193;-86
2022/07/03 01:16:38;;;;;;;7.17;6.57;;;;;;;;;;4970353;28;20275;-85
2022/07/03 01:19:14;;;;;;;9.13;6.63;;;;;;;;;;4969946;28;20197;-86
2022/07/03 01:21:43;;;;;;;7.10;6.43;;;;;;;;;;4973000;28;20193;-85
2022/07/03 01:24:24;;;;;;;7.30;6.80;;;;;;;;;;4973294;28;20233;-86
2022/07/03 01:26:58;;;;;;;7.43;6.73;;;;;;;;;;4973230;28;20193;-85
2022/07/03 01:29:31;;;;;;;8.07;6.03;;;;;;;;;;4973389;28;20711;-85
2022/07/03 01:31:58;;;;;;;7.37;6.77;;;;;;;;;;4973768;28;20627;-85
2022/07/03 01:34:27;;;;;;;11.03;6.43;;;;;;;;;;4973377;28;20561;-85
2022/07/03 01:36:55;;;;;;;7.60;7.00;;;;;;;;;;4973449;28;20288;-85
2022/07/03 01:39:25;;;;;;;7.07;6.43;;;;;;;;;;4973492;28;20205;-86
2022/07/03 01:41:56;;;;;;;7.77;7.00;;;;;;;;;;4973714;28;20201;-85
2022/07/03 01:44:25;;;;;;;7.43;6.83;;;;;;;;;;4973169;28;20239;-86
2022/07/03 01:46:53;;;;;;;6.83;6.33;;;;;;;;;;4973373;28;20201;-85
2022/07/03 01:49:20;;;;;;;6.87;6.30;;;;;;;;;;4972986;28;20259;-86
2022/07/03 01:51:50;;;;;;;9.47;6.87;;;;;;;;;;4973032;28;20215;-85
2022/07/03 01:54:17;;;;;;;7.20;6.60;;;;;;;;;;4973184;28;20201;-84
2022/07/03 01:56:45;;;;;;;6.20;5.70;;;;;;;;;;4972663;28;20237;-84
2022/07/03 01:59:13;;;;;;;6.00;5.40;;;;;;;;;;4972697;28;20209;-84
2022/07/03 02:01:46;;;;;;;8.33;6.27;;;;;;;;;;4972672;28;20209;-85
2022/07/03 02:04:23;;;;;;;7.13;6.43;;;;;;;;;;4972567;28;20190;-85
2022/07/03 02:07:03;;;;;;;6.30;5.83;;;;;;;;;;4973411;28;20277;-84
2022/07/03 02:09:37;;;;;;;7.90;7.20;;;;;;;;;;4972132;28;20193;-83
2022/07/03 02:12:07;;;;;;;7.80;7.00;;;;;;;;;;4972977;28;20188;-84
2022/07/03 02:14:38;;;;;;;7.40;6.23;;;;;;;;;;4972709;28;20205;-85
2022/07/03 02:17:16;;;;;;;6.80;5.97;;;;;;;;;;4972706;28;20190;-84
2022/07/03 02:19:54;;;;;;;8.30;7.50;;;;;;;;;;4972614;28;20193;-84
2022/07/03 02:22:24;;;;;;;7.40;6.80;;;;;;;;;;4972502;28;20276;-85
2022/07/03 02:24:51;;;;;;;9.00;8.20;;;;;;;;;;4972868;28;20636;-85
2022/07/03 02:27:21;;;;;;;8.70;7.90;;;;;;;;;;4972655;28;20202;-85
2022/07/03 02:29:53;;;;;;;10.00;7.17;;;;;;;;;;4972328;28;20205;-85
2022/07/03 02:32:22;;;;;;;8.40;7.60;;;;;;;;;;4971500;28;20689;-85
2022/07/03 02:34:56;;;;;;;8.03;7.23;;;;;;;;;;4972629;28;20656;-85
2022/07/03 02:37:23;;;;;;;7.77;7.17;;;;;;;;;;4972084;28;20198;-85
2022/07/03 02:40:08;;;;;;;7.57;6.97;;;;;;;;;;4972410;28;20670;-85
2022/07/03 02:42:40;;;;;;;7.80;7.10;;;;;;;;;;4972244;28;20193;-85
2022/07/03 02:45:10;;;;;;;8.70;7.73;;;;;;;;;;4972108;28;20189;-85
2022/07/03 02:47:47;;;;;;;8.97;8.00;;;;;;;;;;4972509;28;20205;-85
2022/07/03 02:50:18;;;;;;;8.23;7.43;;;;;;;;;;4972459;28;20239;-85
2022/07/03 02:52:54;;;;;;;7.73;7.13;;;;;;;;;;4972370;28;20185;-85
2022/07/03 02:55:42;;;;;;;7.30;6.60;;;;;;;;;;4972020;28;20294;-85
2022/07/03 02:58:29;;;;;;;6.70;6.20;;;;;;;;;;4972297;28;20200;-85
2022/07/03 03:01:08;;;;;;;7.53;6.93;;;;;;;;;;4972056;28;20297;-85
2022/07/03 03:03:36;;;;;;;7.33;6.77;;;;;;;;;;4971943;28;20185;-85
2022/07/03 03:06:14;;;;;;;9.83;7.20;;;;;;;;;;4972049;28;20295;-85
2022/07/03 03:08:44;;;;;;;8.10;7.40;;;;;;;;;;4972589;28;20658;-85
2022/07/03 03:11:18;;;;;;;7.80;6.53;;;;;;;;;;4972145;28;20186;-85
2022/07/03 03:13:51;;;;;;;8.03;7.30;;;;;;;;;;4971836;28;20197;-85
2022/07/03 03:16:19;;;;;;;8.13;7.43;;;;;;;;;;4971931;28;20205;-85
2022/07/03 03:18:46;;;;;;;8.00;7.23;;;;;;;;;;4971695;28;20204;-85
2022/07/03 03:21:17;;;;;;;7.60;7.00;;;;;;;;;;4972111;28;20200;-85
2022/07/03 03:23:48;;;;;;;7.77;7.07;;;;;;;;;;4971934;28;20262;-85
2022/07/03 03:26:16;;;;;;;8.83;7.13;;;;;;;;;;4971973;28;20276;-85
2022/07/03 03:28:43;;;;;;;7.87;6.77;;;;;;;;;;4971542;28;20262;-85
2022/07/03 03:31:11;;;;;;;8.40;7.70;;;;;;;;;;4971652;28;20197;-85
2022/07/03 03:33:42;;;;;;;7.63;6.93;;;;;;;;;;4970708;28;20209;-92
2022/07/03 03:36:13;;;;;;;7.63;6.97;;;;;;;;;;4972841;28;20271;-94
2022/07/03 03:38:48;;;;;;;9.87;7.63;;;;;;;;;;4987681;28;20215;-94
2022/07/03 03:41:18;;;;;;;8.43;7.70;;;;;;;;;;4972318;28;20205;-95
2022/07/03 03:43:48;;;;;;;9.00;8.10;;;;;;;;;;4971798;28;20209;-95
2022/07/03 03:46:16;;;;;;;9.33;7.37;;;;;;;;;;4972191;28;20255;-96
2022/07/03 03:48:50;;;;;;;8.47;7.03;;;;;;;;;;4972502;28;20239;-94
2022/07/03 03:51:17;;;;;;;8.33;7.53;;;;;;;;;;4972093;28;20273;-95
2022/07/03 03:53:44;;;;;;;7.60;7.00;;;;;;;;;;4972107;28;20201;-95
2022/07/03 03:56:14;;;;;;;7.20;6.50;;;;;;;;;;4971892;28;20294;-94
2022/07/03 03:58:42;;;;;;;8.80;7.90;;;;;;;;;;4972382;28;20205;-94
2022/07/03 04:01:11;;;;;;;11.70;7.47;;;;;;;;;;4972207;28;20258;-95
2022/07/03 04:03:39;;;;;;;8.97;8.27;;;;;;;;;;4972080;28;20633;-95
2022/07/03 04:06:08;;;;;;;7.67;7.00;;;;;;;;;;4971839;28;20209;-95
2022/07/03 04:08:35;;;;;;;7.57;6.97;;;;;;;;;;4971816;28;20674;-95
2022/07/03 04:11:05;;;;;;;9.03;7.37;;;;;;;;;;4971928;28;20639;-95
2022/07/03 04:13:33;;;;;;;7.97;7.27;;;;;;;;;;4972327;28;20213;-95
2022/07/03 04:16:00;;;;;;;10.53;7.53;;;;;;;;;;4971946;28;20232;-95
2022/07/03 04:18:27;;;;;;;8.13;7.33;;;;;;;;;;4972335;28;20621;-95
2022/07/03 04:20:54;;;;;;;10.37;9.37;;;;;;;;;;4971427;28;20735;-96
2022/07/03 04:23:23;;;;;;;18.63;16.73;;;;;;;;;;4971910;28;20255;-95
2022/07/03 04:25:53;;;;;;;18.27;15.33;;;;;;;;;;4971747;28;20201;-95
2022/07/03 04:28:24;;;;;;;10.80;9.90;;;;;;;;;;4972171;28;20258;-96
2022/07/03 04:30:51;;;;;;;10.67;9.67;;;;;;;;;;4971915;28;20279;-96
2022/07/03 04:33:21;;;;;;;11.83;8.53;;;;;;;;;;4978432;28;20220;-96
2022/07/03 04:35:51;;;;;;;9.23;8.33;;;;;;;;;;4992519;28;20274;-96
2022/07/03 04:38:18;;;;;;;12.47;11.20;;;;;;;;;;4993754;28;20232;-96
2022/07/03 04:40:47;;;;;;;10.37;9.07;;;;;;;;;;4993522;28;20738;-96
2022/07/03 04:43:18;;;;;;;8.67;7.87;;;;;;;;;;4994341;28;20257;-96
2022/07/03 04:45:45;;;;;;;8.53;7.80;;;;;;;;;;4993449;28;20203;-96
2022/07/03 04:48:12;;;;;;;10.03;7.27;;;;;;;;;;4991060;28;20261;-95
2022/07/03 04:50:39;;;;;;;8.53;7.73;;;;;;;;;;4991049;28;20269;-95
2022/07/03 04:53:06;;;;;;;8.43;7.60;;;;;;;;;;4990964;28;20642;-94
2022/07/03 04:55:33;;;;;;;8.03;7.23;;;;;;;;;;4989522;28;20235;-96
2022/07/03 04:58:02;;;;;;;8.30;6.80;;;;;;;;;;4990695;28;20222;-96
2022/07/03 05:00:29;;;;;;;7.40;6.80;;;;;;;;;;4990577;28;20254;-95
2022/07/03 05:02:56;;;;;;;6.80;6.27;;;;;;;;;;4990624;28;20208;-96
2022/07/03 05:05:24;;;;;;;6.80;6.27;;;;;;;;;;4990161;28;20250;-96
2022/07/03 05:07:51;;;;;;;7.10;6.50;;;;;;;;;;4990470;28;20204;-96
2022/07/03 05:10:18;;;;;;;6.73;5.93;;;;;;;;;;4990394;28;20204;-96
2022/07/03 05:12:45;;;;;;;6.50;5.90;;;;;;;;;;4990387;28;20192;-96
2022/07/03 05:15:14;;;;;;;6.27;5.70;;;;;;;;;;4990529;28;20200;-94
2022/07/03 05:17:41;;;;;;;6.73;6.17;;;;;;;;;;4990651;28;20224;-94
2022/07/03 05:20:29;;;;;;;7.97;6.00;;;;;;;;;;4990716;28;20258;-94
2022/07/03 05:22:56;;;;;;;7.33;5.80;;;;;;;;;;4990541;28;20227;-94
2022/07/03 05:25:24;;;;;;;8.10;7.03;;;;;;;;;;4990317;28;20200;-93
2022/07/03 05:27:52;;;;;;;6.97;6.37;;;;;;;;;;4990407;28;20684;-93
2022/07/03 05:30:21;;;;;;;6.90;6.40;;;;;;;;;;4990504;28;20254;-93
2022/07/03 05:32:49;;;;;;;6.83;6.13;;;;;;;;;;4990235;28;20234;-94
2022/07/03 05:35:16;;;;;;;6.80;6.10;;;;;;;;;;4990106;28;20208;-94
2022/07/03 05:37:43;;;;;;;6.23;5.60;;;;;;;;;;4990175;28;20228;-94
2022/07/03 05:40:11;;;;;;;6.63;6.00;;;;;;;;;;4990362;28;20261;-94
2022/07/03 05:42:38;;;;;;;11.20;6.30;;;;;;;;;;4990500;28;20258;-93
2022/07/03 05:45:07;;;;;;;9.40;6.43;;;;;;;;;;4990320;28;20196;-94
2022/07/03 05:47:35;;;;;;;6.57;5.93;;;;;;;;;;4991587;28;20211;-94
2022/07/03 05:50:04;;;;;;;6.03;5.43;;;;;;;;;;4986704;28;20257;-94
2022/07/03 05:52:31;;;;;;;6.77;6.23;;;;;;;;;;4981569;28;20205;-95
2022/07/03 05:54:58;;;;;;;6.30;5.70;;;;;;;;;;4988065;28;20201;-93
2022/07/03 05:57:25;;;;;;;6.50;6.00;;;;;;;;;;5006292;28;20664;-92
2022/07/03 05:59:52;;;;;;;6.63;6.00;;;;;;;;;;5009692;28;20200;-91
2022/07/03 06:02:19;;;;;;;7.80;7.10;;;;;;;;;;5009454;28;20227;-92
2022/07/03 06:04:48;;;;;;;6.77;5.83;;;;;;;;;;5009489;28;20249;-92
2022/07/03 06:07:16;;;;;;;7.10;6.50;;;;;;;;;;5011431;28;20264;-93
2022/07/03 06:09:44;;;;;;;6.93;6.43;;;;;;;;;;5013053;28;20199;-93
2022/07/03 06:12:11;;;;;;;6.80;6.30;;;;;;;;;;5012853;28;20214;-93
2022/07/03 06:14:38;;;;;;;8.17;7.50;;;;;;;;;;5012823;28;20204;-92
2022/07/03 06:17:06;;;;;;;6.90;6.30;;;;;;;;;;5012543;28;20219;-93
2022/07/03 06:19:33;;;;;;;7.90;6.47;;;;;;;;;;5012945;28;20260;-92
2022/07/03 06:22:01;;;;;;;8.00;7.30;;;;;;;;;;5012892;28;20229;-92
2022/07/03 06:24:29;;;;;;;6.67;6.07;;;;;;;;;;5012854;28;20622;-93
2022/07/03 06:26:56;;;;;;;6.53;6.03;;;;;;;;;;5012502;28;20245;-92
2022/07/03 06:29:25;;;;;;;6.80;6.20;;;;;;;;;;5012605;28;20684;-93
2022/07/03 06:31:52;;;;;;;8.60;5.90;;;;;;;;;;5012432;28;20673;-93
2022/07/03 06:34:20;;;;;;;6.70;5.80;;;;;;;;;;5012529;28;20210;-93
2022/07/03 06:36:47;;;;;;;8.27;6.23;;;;;;;;;;5012532;28;20227;-92
2022/07/03 06:39:16;;;;;;;8.57;6.70;;;;;;;;;;5012732;28;20560;-93
2022/07/03 06:41:43;;;;;;;7.03;6.33;;;;;;;;;;5012455;28;20729;-93
2022/07/03 06:44:10;;;;;;;6.30;5.70;;;;;;;;;;5012426;28;20199;-91
2022/07/03 06:46:37;;;;;;;6.73;5.77;;;;;;;;;;5012422;28;20264;-95
2022/07/03 06:49:04;;;;;;;7.30;6.70;;;;;;;;;;4981054;28;20623;-92
2022/07/03 06:51:33;;;;;;;6.93;6.00;;;;;;;;;;4988852;28;20216;-93
2022/07/03 06:54:00;;;;;;;7.03;5.93;;;;;;;;;;4992848;28;20200;-93
2022/07/03 06:56:29;;;;;;;6.70;5.80;;;;;;;;;;5046311;28;20228;-93
2022/07/03 06:58:56;;;;;;;6.43;5.93;;;;;;;;;;5075253;28;20227;-95
2022/07/03 07:01:23;;;;;;;7.30;5.90;;;;;;;;;;5075545;28;20634;-94
2022/07/03 07:03:50;;;;;;;6.27;5.80;;;;;;;;;;5070641;28;20254;-94
2022/07/03 07:06:18;;;;;;;5.90;5.40;;;;;;;;;;5074662;28;20193;-95
2022/07/03 07:08:45;;;;;;;5.73;5.23;;;;;;;;;;5074699;28;20197;-93
2022/07/03 07:11:12;;;;;;;6.13;5.63;;;;;;;;;;5074738;28;20204;-92
2022/07/03 07:13:41;;;;;;;9.67;5.93;;;;;;;;;;5074573;28;20204;-95
2022/07/03 07:16:08;;;;;;;5.30;4.73;;;;;;;;;;5075224;28;20746;-94
2022/07/03 07:18:35;;;;;;;5.43;4.93;;;;;;;;;;5073956;28;20204;-94
2022/07/03 07:21:02;;;;;;;5.50;5.00;;;;;;;;;;5074697;28;20201;-96
2022/07/03 07:23:30;;;;;;;4.97;4.57;;;;;;;;;;5074670;28;20201;-94
2022/07/03 07:25:57;;;;;;;5.63;5.20;;;;;;;;;;5074549;28;20662;-96
2022/07/03 07:28:24;;;;;;;9.70;8.17;;;;;;;;;;5074331;28;20745;-95
2022/07/03 07:30:55;;;;;;;29.47;24.17;;;;;;;;;;5074341;28;20197;-95
2022/07/03 07:33:22;;;;;;;34.40;28.13;;;;;;;;;;5074426;28;20197;-94
2022/07/03 07:35:49;;;;;;;6.22;5.63;;;;;;;;;;5076638;28;20799;-96
2022/07/03 07:38:16;;;;;;;8.47;5.13;;;;;;;;;;5075614;28;20667;-95
2022/07/03 07:40:44;;;;;;;9.23;8.30;;;;;;;;;;5076162;28;20724;-96
2022/07/03 07:43:11;;;;;;;9.90;8.95;;;;;;;;;;5074815;28;20215;-95
2022/07/03 07:45:38;;;;;;;8.47;6.93;;;;;;;;;;5075081;28;20201;-95
2022/07/03 07:48:07;;;;;;;10.52;9.50;;;;;;;;;;5074344;28;20669;-94
2022/07/03 07:50:34;;;;;;;8.68;7.18;;;;;;;;;;5074507;28;20200;-94
2022/07/03 07:53:02;;;;;;;8.07;7.30;;;;;;;;;;5075334;28;20651;-93
2022/07/03 07:55:39;;;;;;;11.35;10.45;;;;;;;;;;5056941;28;20606;-95
2022/07/03 07:58:06;;;;;;;12.38;11.25;;;;;;;;;;4992185;28;20227;-93
2022/07/03 08:00:33;;;;;;;9.63;8.73;;;;;;;;;;4991750;28;20192;-94
2022/07/03 08:05:46;;;;;;;11.20;9.13;;;;;;;;;;4991732;28;20282;-95
2022/07/03 08:08:15;;;;;;;10.27;9.48;;;;;;;;;;4991815;28;20203;-94
2022/07/03 08:10:45;;;;;;;15.98;14.45;;;;;;;;;;4991623;28;20257;-95
2022/07/03 08:13:13;;;;;;;19.65;17.15;;;;;;;;;;4991733;28;20238;-94
2022/07/03 08:15:41;;;;;;;20.65;18.70;;;;;;;;;;4991550;28;20283;-94
2022/07/03 08:18:12;;;;;;;76.53;49.75;;;;;;;;;;4991578;28;20220;-96
2022/07/03 08:20:39;;;;;;;52.72;39.47;;;;;;;;;;4992133;28;20208;-96
2022/07/03 08:23:08;;;;;;;50.63;38.33;;;;;;;;;;4992798;28;20204;-95
2022/07/03 08:25:36;;;;;;;35.50;29.92;;;;;;;;;;4991522;28;20203;-93
2022/07/03 08:28:03;;;;;;;46.35;38.92;;;;;;;;;;4992042;28;20283;-96
2022/07/03 08:30:30;;;;;;;38.42;34.05;;;;;;;;;;4990227;28;20203;-94
2022/07/03 08:32:59;;;;;;;16.70;13.00;;;;;;;;;;4991368;28;20285;-94
2022/07/03 08:35:26;;;;;;;65.57;45.67;;;;;;;;;;4991106;28;20205;-93
2022/07/03 08:37:54;;;;;;;65.25;34.60;;;;;;;;;;4990887;28;20311;-94
2022/07/03 08:40:23;;;;;;;43.95;29.52;;;;;;;;;;4991018;28;20207;-94
2022/07/03 08:42:54;;;;;;;27.30;19.10;;;;;;;;;;4990929;28;20351;-92
2022/07/03 08:45:24;;;;;;;22.08;16.35;;;;;;;;;;4991214;28;20241;-94
2022/07/03 08:47:53;;;;;;;11.80;8.55;;;;;;;;;;4991038;28;20324;-93
2022/07/03 08:50:22;;;;;;;12.38;11.13;;;;;;;;;;4991377;28;20204;-95
2022/07/03 08:52:49;;;;;;;8.82;7.57;;;;;;;;;;4990983;28;20217;-94
2022/07/03 08:55:18;;;;;;;6.85;6.22;;;;;;;;;;4990689;28;20240;-94
2022/07/03 08:57:49;;;;;;;13.15;10.65;;;;;;;;;;4990693;28;20757;-92
2022/07/03 09:00:18;;;;;;;19.08;15.07;;;;;;;;;;4991345;28;20200;-94
2022/07/03 09:02:51;;;;;;;10.35;9.32;;;;;;;;;;4990845;28;20734;-94
2022/07/03 09:05:19;;;;;;;31.80;20.98;;;;;;;;;;4991247;28;20657;-95
2022/07/03 09:07:47;;;;;;;21.70;15.55;;;;;;;;;;4990802;28;20244;-95
2022/07/03 09:10:17;;;;;;;25.75;17.33;;;;;;;;;;4990779;28;20212;-93
2022/07/03 09:12:48;;;;;;;55.10;23.48;;;;;;;;;;4990777;28;20234;-94
2022/07/03 09:15:15;;;;;;;14.55;10.27;;;;;;;;;;4990348;28;20201;-94
2022/07/03 09:17:57;;;;;;;15.65;13.45;;;;;;;;;;4990692;28;20224;-94
2022/07/03 09:20:30;;;;;;;8.73;7.93;;;;;;;;;;4990618;28;20295;-93
2022/07/03 09:23:10;;;;;;;6.13;5.72;;;;;;;;;;4990405;28;20232;-96
2022/07/03 09:25:51;;;;;;;11.98;7.43;;;;;;;;;;4990342;28;20240;-94
2022/07/03 09:28:21;;;;;;;7.53;6.82;;;;;;;;;;4990244;28;20191;-95
2022/07/03 09:30:58;;;;;;;7.10;6.50;;;;;;;;;;4990530;28;20200;-94
2022/07/03 09:33:25;;;;;;;11.20;7.13;;;;;;;;;;4990422;28;20200;-96
2022/07/03 09:35:54;;;;;;;15.25;11.00;;;;;;;;;;4990569;28;20205;-95
2022/07/03 09:38:22;;;;;;;27.98;21.95;;;;;;;;;;4990756;28;20229;-94
2022/07/03 09:40:50;;;;;;;14.10;9.93;;;;;;;;;;4990457;28;20204;-96
2022/07/03 09:43:25;;;;;;;9.63;7.15;;;;;;;;;;4996317;28;20291;-95
2022/07/03 09:45:54;;;;;;;17.67;11.82;;;;;;;;;;4994326;28;20227;-95
2022/07/03 09:48:23;;;;;;;40.33;28.33;;;;;;;;;;4994423;28;20200;-95
2022/07/03 09:50:50;;;;;;;19.05;14.38;;;;;;;;;;4994425;28;20619;-94
2022/07/03 09:53:17;;;;;;;64.45;41.83;;;;;;;;;;4995231;28;20635;-96
2022/07/03 09:55:57;;;;;;;12.40;9.68;;;;;;;;;;4994612;28;20247;-96
2022/07/03 09:58:25;;;;;;;14.68;9.85;;;;;;;;;;4994892;28;20220;-94
2022/07/03 10:06:51;;;;;;;38.40;26.63;;;;;;;;;;4989750;28;20673;-96
2022/07/03 10:09:19;;;;;;;16.80;11.07;;;;;;;;;;4993806;28;20678;-93
2022/07/03 10:11:47;;;;;;;32.08;26.35;;;;;;;;;;4993556;28;20254;-94
2022/07/03 10:14:45;;;;;;;24.23;17.45;;;;;;;;;;4996712;28;20204;-96
2022/07/03 10:17:13;;;;;;;20.17;17.92;;;;;;;;;;4993098;28;20200;-96
2022/07/03 10:19:40;;;;;;;12.10;10.25;;;;;;;;;;4993218;28;20200;-91
2022/07/03 10:22:11;;;;;;;4.85;4.40;;;;;;;;;;4993168;28;20265;-95
2022/07/03 10:24:38;;;;;;;5.60;4.55;;;;;;;;;;4993416;28;20200;-95
2022/07/03 10:27:06;;;;;;;5.55;5.05;;;;;;;;;;4993262;28;20258;-96
2022/07/03 10:29:34;;;;;;;15.05;5.95;;;;;;;;;;4993155;28;20204;-95
2022/07/03 10:32:02;;;;;;;9.70;8.02;;;;;;;;;;4993047;28;20329;-93
2022/07/03 10:34:30;;;;;;;5.45;4.95;;;;;;;;;;4993326;28;20209;-94
2022/07/03 10:37:00;;;;;;;5.13;4.72;;;;;;;;;;4992912;28;20188;-95
2022/07/03 10:39:35;;;;;;;5.07;4.68;;;;;;;;;;4992911;28;20307;-95
2022/07/03 10:44:56;;;;;;;5.05;4.38;;;;;;;;;;4993259;28;20262;-95
2022/07/03 10:47:43;;;;;;;5.05;4.32;;;;;;;;;;4992479;28;20226;-95
2022/07/03 10:50:13;;;;;;;4.53;3.95;;;;;;;;;;4992728;28;20677;-96
2022/07/03 10:52:41;;;;;;;4.95;4.55;;;;;;;;;;4991787;28;20625;-96
2022/07/03 10:55:09;;;;;;;4.70;4.38;;;;;;;;;;4992365;28;20204;-96
2022/07/03 10:57:36;;;;;;;5.07;4.68;;;;;;;;;;4992810;28;20220;-96
2022/07/03 11:00:18;;;;;;;5.03;4.28;;;;;;;;;;4992248;28;20200;-96
2022/07/03 11:02:48;;;;;;;4.82;4.32;;;;;;;;;;4992697;28;20234;-95
2022/07/03 11:05:26;;;;;;;5.88;4.53;;;;;;;;;;4992588;28;20204;-94
2022/07/03 11:08:20;;;;;;;4.78;4.32;;;;;;;;;;4992557;28;20200;-94
2022/07/03 11:11:54;;;;;;;5.13;4.15;;;;;;;;;;4992487;28;20196;-94
2022/07/03 11:13:35;;;;;;;5.00;4.50;;;;;;;;;;4992500;28;20205;-96
2022/07/03 11:16:02;;;;;;;8.52;4.60;;;;;;;;;;4993008;28;20277;-95
2022/07/03 11:18:32;;;;;;;4.80;4.47;;;;;;;;;;4992433;28;20667;-94
2022/07/03 11:21:26;;;;;;;4.25;3.92;;;;;;;;;;4992502;28;20263;-96
2022/07/03 11:24:08;;;;;;;4.68;4.10;;;;;;;;;;4993421;28;20208;-96
2022/07/03 11:26:35;;;;;;;7.38;3.85;;;;;;;;;;4992724;28;20288;-96
2022/07/03 11:29:02;;;;;;;4.53;4.22;;;;;;;;;;4996725;28;20738;-96
2022/07/03 11:31:30;;;;;;;6.03;4.70;;;;;;;;;;4994467;28;20200;-95
2022/07/03 11:34:02;;;;;;;7.13;4.70;;;;;;;;;;4993141;28;20208;-96
2022/07/03 11:36:30;;;;;;;4.95;4.07;;;;;;;;;;4995044;28;20297;-96
2022/07/03 11:39:09;;;;;;;7.25;4.10;;;;;;;;;;4995994;28;20279;-96
2022/07/03 11:41:47;;;;;;;5.82;3.92;;;;;;;;;;4996513;28;20257;-96
2022/07/03 11:44:20;;;;;;;4.53;4.22;;;;;;;;;;4995708;28;20211;-96
2022/07/03 11:46:53;;;;;;;8.93;4.47;;;;;;;;;;4995794;28;20227;-96
2022/07/03 11:49:24;;;;;;;5.13;4.63;;;;;;;;;;4992994;28;20200;-96
2022/07/03 11:51:59;;;;;;;5.63;4.60;;;;;;;;;;4992789;28;20196;-94
2022/07/03 11:54:27;;;;;;;4.78;4.38;;;;;;;;;;4992493;28;20203;-96
2022/07/03 11:56:54;;;;;;;4.95;4.53;;;;;;;;;;4992027;28;20281;-95
2022/07/03 11:59:22;;;;;;;4.95;4.43;;;;;;;;;;4991725;28;20282;-94
2022/07/03 12:01:49;;;;;;;6.65;4.28;;;;;;;;;;4991701;28;20208;-95
2022/07/03 12:04:17;;;;;;;5.53;5.13;;;;;;;;;;4994422;28;20222;-96
2022/07/03 12:06:48;;;;;;;8.32;4.40;;;;;;;;;;4994234;28;20204;-96
2022/07/03 12:09:18;;;;;;;6.90;4.78;;;;;;;;;;4988025;28;20189;-94
2022/07/03 12:11:59;;;;;;;4.57;4.18;;;;;;;;;;4992271;28;20664;-96
2022/07/03 12:14:42;;;;;;;5.30;4.57;;;;;;;;;;4992407;28;20195;-96
2022/07/03 12:17:11;;;;;;;5.47;4.97;;;;;;;;;;4993446;28;20617;-95
2022/07/03 12:19:39;;;;;;;5.35;4.90;;;;;;;;;;4993545;28;20250;-95
2022/07/03 12:22:08;;;;;;;4.38;4.07;;;;;;;;;;4995167;28;20553;-96
2022/07/03 12:24:39;;;;;;;4.40;3.97;;;;;;;;;;4992834;28;20208;-96
2022/07/03 12:27:07;;;;;;;6.13;5.53;;;;;;;;;;4992871;28;20238;-95
2022/07/03 12:29:34;;;;;;;5.28;4.60;;;;;;;;;;4991755;28;20200;-94
2022/07/03 12:32:02;;;;;;;4.63;4.25;;;;;;;;;;4991490;28;20657;-96
2022/07/03 12:34:29;;;;;;;5.30;4.47;;;;;;;;;;4991289;28;20196;-95
2022/07/03 12:36:58;;;;;;;5.88;4.15;;;;;;;;;;4991769;28;20212;-95
2022/07/03 12:39:42;;;;;;;5.70;3.75;;;;;;;;;;4992270;28;20231;-96
2022/07/03 12:42:16;;;;;;;6.18;4.43;;;;;;;;;;4992493;28;20235;-94
2022/07/03 12:44:43;;;;;;;5.20;4.60;;;;;;;;;;4990704;28;20755;-95
2022/07/03 12:47:10;;;;;;;4.47;4.13;;;;;;;;;;4991511;28;20677;-94
2022/07/03 12:49:37;;;;;;;5.07;4.18;;;;;;;;;;4990881;28;20612;-94
2022/07/03 12:52:07;;;;;;;4.57;4.18;;;;;;;;;;4991153;28;20569;-95
2022/07/03 12:54:36;;;;;;;6.30;4.50;;;;;;;;;;4990904;28;20258;-94
2022/07/03 12:59:16;;;;;;;5.15;4.07;;;;;;;;;;4990338;28;20289;-93
2022/07/03 13:00:01;;;;;;;6.55;4.45;;;;;;;;;;4990545;28;20215;-94
2022/07/03 13:02:29;;;;;;;6.05;4.05;;;;;;;;;;4991055;28;20191;-93
2022/07/03 13:04:56;;;;;;;6.22;4.47;;;;;;;;;;4990916;28;20233;-95
2022/07/03 13:07:23;;;;;;;6.15;4.30;;;;;;;;;;4990349;28;20261;-95
2022/07/03 13:09:55;;;;;;;5.68;4.10;;;;;;;;;;4991128;28;20208;-95
2022/07/03 13:12:22;;;;;;;4.40;4.07;;;;;;;;;;4990694;28;20197;-95
2022/07/03 13:14:57;;;;;;;6.18;3.72;;;;;;;;;;4990734;28;20218;-94
2022/07/03 13:17:24;;;;;;;7.10;3.97;;;;;;;;;;4992935;28;20622;-95
2022/07/03 13:19:51;;;;;;;5.18;3.92;;;;;;;;;;4993798;28;20228;-94
2022/07/03 13:22:18;;;;;;;4.32;3.97;;;;;;;;;;4993828;28;20258;-94
2022/07/03 13:24:45;;;;;;;8.88;5.30;;;;;;;;;;4994289;28;20200;-94
2022/07/03 13:27:14;;;;;;;5.03;4.15;;;;;;;;;;4994070;28;20249;-94
2022/07/03 13:29:41;;;;;;;4.60;4.20;;;;;;;;;;4994225;28;20257;-94
2022/07/03 13:32:08;;;;;;;3.92;3.63;;;;;;;;;;4994070;28;20234;-93
2022/07/03 13:34:36;;;;;;;5.13;3.97;;;;;;;;;;4994080;28;20201;-95
2022/07/03 13:37:03;;;;;;;7.20;3.90;;;;;;;;;;4993883;28;20225;-94
2022/07/03 13:39:30;;;;;;;8.13;4.57;;;;;;;;;;4993638;28;20671;-93
2022/07/03 13:41:57;;;;;;;5.72;4.13;;;;;;;;;;4993823;28;20250;-95
2022/07/03 13:44:26;;;;;;;4.60;3.40;;;;;;;;;;4993902;28;20265;-94
2022/07/03 13:46:53;;;;;;;4.75;3.80;;;;;;;;;;4993832;28;20204;-96
2022/07/03 13:49:20;;;;;;;7.13;4.20;;;;;;;;;;4993780;28;20238;-94
2022/07/03 13:51:48;;;;;;;5.85;3.80;;;;;;;;;;4993643;28;20258;-94
2022/07/03 13:54:15;;;;;;;3.97;3.55;;;;;;;;;;4994159;28;20711;-94
2022/07/03 13:56:42;;;;;;;4.70;4.10;;;;;;;;;;4993602;28;20236;-94
2022/07/03 13:59:10;;;;;;;4.53;3.92;;;;;;;;;;4993578;28;20307;-94
2022/07/03 14:01:38;;;;;;;5.43;3.45;;;;;;;;;;4993570;28;20246;-92
2022/07/03 14:04:05;;;;;;;4.43;4.05;;;;;;;;;;4993430;28;20265;-95
2022/07/03 14:06:32;;;;;;;4.00;3.60;;;;;;;;;;4992314;28;20273;-90
2022/07/03 14:08:59;;;;;;;7.97;4.28;;;;;;;;;;4993115;28;20261;-89
2022/07/03 14:11:26;;;;;;;12.57;3.78;;;;;;;;;;4993038;28;20726;-88
2022/07/03 14:13:53;;;;;;;6.25;4.00;;;;;;;;;;4992874;28;20200;-90
2022/07/03 14:16:21;;;;;;;7.90;4.03;;;;;;;;;;4993125;28;20211;-95
2022/07/03 14:18:50;;;;;;;5.13;3.80;;;;;;;;;;4994368;28;20724;-95
2022/07/03 14:21:17;;;;;;;5.60;3.95;;;;;;;;;;4993469;28;20204;-95
2022/07/03 14:23:44;;;;;;;4.35;3.38;;;;;;;;;;4994009;28;20208;-93
2022/07/03 14:26:11;;;;;;;3.70;3.40;;;;;;;;;;4993682;28;20208;-95
2022/07/03 14:34:08;;;;;;;6.07;4.20;;;;;;;;;;4994617;28;20635;-96
2022/07/03 14:36:36;;;;;;;4.00;3.53;;;;;;;;;;4994110;28;20201;-92
2022/07/03 14:39:03;;;;;;;3.95;3.65;;;;;;;;;;4994494;28;20224;-93
2022/07/03 14:41:30;;;;;;;4.45;3.85;;;;;;;;;;4993836;28;20242;-94
2022/07/03 14:43:57;;;;;;;4.53;4.13;;;;;;;;;;4994360;28;20219;-93
2022/07/03 14:46:25;;;;;;;5.55;3.65;;;;;;;;;;4993920;28;20192;-96
2022/07/03 14:48:52;;;;;;;4.05;3.78;;;;;;;;;;4994990;28;20559;-93
2022/07/03 14:51:22;;;;;;;4.53;4.13;;;;;;;;;;4992819;28;20224;-94
2022/07/03 14:53:49;;;;;;;4.32;3.95;;;;;;;;;;4993023;28;20257;-94
2022/07/03 14:56:19;;;;;;;6.60;3.97;;;;;;;;;;4992457;28;20262;-93
2022/07/03 14:58:47;;;;;;;4.25;3.83;;;;;;;;;;4993455;28;20250;-92
2022/07/03 15:01:17;;;;;;;4.95;4.05;;;;;;;;;;4985656;28;20200;-94
2022/07/03 15:03:52;;;;;;;4.80;4.40;;;;;;;;;;4992736;28;20196;-96
2022/07/03 15:06:19;;;;;;;7.53;3.85;;;;;;;;;;4992558;28;20268;-96
2022/07/03 15:08:58;;;;;;;6.90;3.97;;;;;;;;;;4992464;28;20579;-94
2022/07/03 15:14:20;;;;;;;6.20;3.58;;;;;;;;;;4992401;28;20265;-92